Time;durP1;ratioP1;P1;durP2;ratioP2;P2;SDS_P1;SDS_P2;PMS_P1;PMS_P2;Temp;Humidity;BMP_temperature;BMP_pressure;BME280_temperature;BME280_humidity;BME280_pressure;Samples;Min_cycle;Max_cycle;Signal;HPM_P1;HPM_P2
2022/06/12 00:10:18;;;;;;;10.75;5.00;;;;;;;20.87;79.01;100820.01;713386;1177;115865;-78
2022/06/12 00:25:25;;;;;;;8.38;5.13;;;;;;;20.88;79.88;100818.19;712577;1179;115756;-78
2022/06/12 00:40:27;;;;;;;7.45;4.95;;;;;;;20.85;79.98;100816.72;712656;1179;115872;-78
2022/06/12 00:55:45;;;;;;;10.73;5.67;;;;;;;20.82;80.00;100805.61;712630;1178;115763;-78
2022/06/12 01:10:52;;;;;;;8.00;5.50;;;;;;;21.01;78.98;100796.97;712570;1180;116245;-78
2022/06/12 01:26:34;;;;;;;8.20;5.60;;;;;;;20.84;81.67;100819.55;712526;1177;115776;-78
2022/06/12 01:42:03;;;;;;;7.70;5.65;;;;;;;20.65;83.27;100826.31;712534;1180;115790;-78
2022/06/12 01:57:17;;;;;;;9.10;6.40;;;;;;;20.37;84.37;100811.86;712537;1177;114774;-77
2022/06/12 02:27:56;;;;;;;9.00;6.85;;;;;;;20.10;87.07;100795.56;712762;1180;115109;-77
2022/06/12 02:43:03;;;;;;;10.30;6.60;;;;;;;20.38;87.52;100786.88;712618;1179;115812;-77
2022/06/12 02:58:12;;;;;;;9.50;6.30;;;;;;;20.40;87.64;100784.02;712408;1178;116149;-78
2022/06/12 03:13:16;;;;;;;;;;;;;;;20.25;90.72;100800.86;712585;1178;115270;-78
2022/06/12 03:28:30;;;;;;;8.45;6.60;;;;;;;20.36;89.74;100796.88;713232;1179;101721;-78
2022/06/12 03:43:55;;;;;;;9.57;6.87;;;;;;;20.52;89.91;100805.67;712875;1178;115602;-78
2022/06/12 03:59:30;;;;;;;13.00;8.20;;;;;;;20.69;90.17;100820.43;712366;1177;115661;-78
2022/06/12 04:14:40;;;;;;;14.48;9.73;;;;;;;21.00;89.77;100824.65;712566;1177;115697;-76
2022/06/12 04:30:17;;;;;;;8.73;7.77;;;;;;;21.22;89.41;100827.29;712470;1177;114483;-77
2022/06/12 04:45:19;;;;;;;13.90;8.55;;;;;;;21.48;89.37;100850.70;712157;1178;115748;-77
2022/06/12 05:00:21;;;;;;;11.63;7.25;;;;;;;21.63;89.17;100852.48;712553;1177;116002;-77
2022/06/12 05:15:24;;;;;;;13.05;7.60;;;;;;;22.28;89.24;100848.53;712490;1177;113967;-77
2022/06/12 05:30:29;;;;;;;10.65;6.80;;;;;;;23.00;87.19;100863.38;712195;1178;116007;-77
2022/06/12 05:45:32;;;;;;;12.07;6.90;;;;;;;23.34;85.96;100862.40;713530;1178;114561;-77
2022/06/12 06:00:35;;;;;;;8.07;5.03;;;;;;;23.68;84.43;100865.08;713119;1179;115282;-74
2022/06/12 06:15:38;;;;;;;5.97;3.33;;;;;;;23.72;80.36;100866.30;713095;1178;115036;-76
2022/06/12 06:30:42;;;;;;;6.00;2.40;;;;;;;24.47;75.81;100871.26;712278;1179;115282;-77
2022/06/12 07:01:07;;;;;;;4.53;2.10;;;;;;;25.23;66.46;100868.75;712496;1179;115616;-78
2022/06/12 07:16:17;;;;;;;4.50;1.87;;;;;;;25.37;63.27;100864.14;712701;1177;115403;-76
2022/06/12 07:31:21;;;;;;;4.30;1.80;;;;;;;25.91;62.81;100853.70;712795;1178;114268;-80
2022/06/12 07:46:24;;;;;;;6.27;2.10;;;;;;;26.95;62.24;100851.98;713042;1177;115699;-75
2022/06/12 08:01:32;;;;;;;6.05;1.83;;;;;;;27.63;60.83;100850.67;712785;1178;115625;-76
2022/06/12 08:16:36;;;;;;;5.85;2.05;;;;;;;27.23;58.10;100856.73;712563;1179;114355;-79
2022/06/12 08:31:44;;;;;;;4.93;1.90;;;;;;;27.44;56.94;100852.67;712722;1178;115723;-70
2022/06/12 08:47:25;;;;;;;5.67;1.97;;;;;;;27.63;55.85;100850.67;713521;1179;115722;-69
2022/06/12 09:02:33;;;;;;;4.60;1.40;;;;;;;28.66;55.60;100841.98;712407;1180;115728;-71
2022/06/12 09:18:08;;;;;;;3.10;1.60;;;;;;;28.84;57.38;100829.36;712997;1179;115445;-70
2022/06/12 09:33:49;;;;;;;6.65;1.78;;;;;;;28.46;56.12;100822.72;712860;1180;115470;-71
2022/06/12 09:49:20;;;;;;;4.80;1.70;;;;;;;29.94;56.10;100814.50;712462;1179;115875;-70
2022/06/12 10:04:36;;;;;;;7.67;1.53;;;;;;;30.29;55.16;100808.67;713054;1180;115963;-69
2022/06/12 10:19:59;;;;;;;2.37;1.20;;;;;;;30.27;54.06;100802.69;712775;1180;115796;-69
2022/06/12 10:35:23;;;;;;;4.97;1.47;;;;;;;30.93;54.61;100787.34;712821;1178;115614;-69
2022/06/12 10:50:35;;;;;;;3.98;1.23;;;;;;;30.78;53.34;100780.73;713317;1180;115997;-68
2022/06/12 11:06:11;;;;;;;5.00;2.15;;;;;;;30.96;52.67;100774.10;712802;1179;115642;-69
2022/06/12 11:21:33;;;;;;;3.83;1.18;;;;;;;31.60;53.21;100771.52;712822;1177;114964;-69
2022/06/12 11:36:44;;;;;;;4.48;1.68;;;;;;;31.54;53.01;100751.67;712825;1178;114365;-72
2022/06/12 11:52:05;;;;;;;4.70;1.60;;;;;;;31.37;53.11;100743.73;712774;1180;115810;-73
2022/06/12 12:07:28;;;;;;;5.90;1.90;;;;;;;30.91;53.17;100706.37;712935;1177;115624;-73
2022/06/12 12:22:42;;;;;;;2.83;1.50;;;;;;;32.73;52.13;100722.11;716365;1178;115252;-73
2022/06/12 12:53:24;;;;;;;5.20;1.70;;;;;;;28.72;53.64;100700.69;713109;1178;114968;-73
2022/06/12 13:08:43;;;;;;;;;;;;;;;28.83;53.96;100690.05;712620;1179;115168;-73
2022/06/12 13:24:16;;;;;;;3.33;1.47;;;;;;;29.43;54.61;100668.72;712761;1177;101763;-73
2022/06/12 13:39:35;;;;;;;4.20;1.60;;;;;;;28.76;54.13;100663.23;714194;1177;114379;-73
2022/06/12 13:54:43;;;;;;;6.23;2.17;;;;;;;28.33;55.05;100648.50;715323;1177;114383;-73
2022/06/12 14:09:48;;;;;;;4.93;2.30;;;;;;;28.14;54.94;100640.66;712824;1177;115427;-72
2022/06/12 14:25:15;;;;;;;3.65;1.68;;;;;;;28.03;55.73;100630.74;714573;1177;115658;-73
2022/06/12 14:40:44;;;;;;;6.85;2.20;;;;;;;27.97;57.47;100615.53;713043;1177;114849;-73
2022/06/12 14:55:48;;;;;;;5.30;2.00;;;;;;;27.42;57.62;100620.44;713919;1179;115712;-73
2022/06/12 15:10:51;;;;;;;5.40;2.05;;;;;;;26.75;58.29;100605.56;713187;1180;115264;-73
2022/06/12 15:41:23;;;;;;;5.20;1.90;;;;;;;25.48;60.38;100592.19;712381;1179;114246;-73
2022/06/12 15:56:27;;;;;;;3.83;2.17;;;;;;;25.12;60.25;100576.94;712946;1179;116425;-75
2022/06/12 16:11:30;;;;;;;5.70;2.60;;;;;;;25.17;61.04;100563.66;713314;1178;115957;-76
2022/06/12 16:26:33;;;;;;;4.50;2.40;;;;;;;25.13;61.87;100551.71;713034;1180;115298;-76
2022/06/12 16:41:49;;;;;;;4.33;2.63;;;;;;;25.20;62.14;100520.26;712920;1177;115029;-78
2022/06/12 16:56:53;;;;;;;9.00;3.47;;;;;;;25.37;62.35;100529.34;712809;1177;115194;-76
2022/06/12 17:11:55;;;;;;;12.30;6.70;;;;;;;25.52;63.00;100514.69;712574;1178;115909;-78
2022/06/12 17:26:58;;;;;;;6.60;2.75;;;;;;;25.32;63.26;100491.59;712812;1178;115789;-81
2022/06/12 17:42:01;;;;;;;7.27;4.73;;;;;;;24.71;64.01;100472.77;712751;1177;116380;-81
2022/06/12 17:57:04;;;;;;;4.58;2.18;;;;;;;24.42;66.38;100468.94;712903;1177;114375;-82
2022/06/12 18:12:07;;;;;;;13.47;5.67;;;;;;;24.40;68.08;100461.13;713872;1177;114345;-84
2022/06/12 18:27:11;;;;;;;9.85;3.30;;;;;;;23.73;69.32;100475.09;714955;1177;115240;-86
2022/06/12 18:42:15;;;;;;;10.08;4.50;;;;;;;23.53;71.79;100453.83;713284;1177;115497;-82
2022/06/12 18:57:17;;;;;;;24.67;13.07;;;;;;;23.24;73.55;100473.97;713344;1178;116233;-85
2022/06/12 19:12:20;;;;;;;22.60;10.70;;;;;;;23.04;75.00;100480.23;713507;1179;114735;-81
2022/06/12 19:27:44;;;;;;;40.70;18.05;;;;;;;22.55;75.96;100545.78;713912;1177;114997;-84
2022/06/12 19:42:52;;;;;;;13.03;6.50;;;;;;;21.61;82.75;100561.73;714642;1177;116201;-84
2022/06/12 19:57:54;;;;;;;8.40;4.10;;;;;;;21.36;86.87;100548.89;719468;1180;114448;-85
2022/06/12 20:12:56;;;;;;;11.05;4.95;;;;;;;21.24;90.12;100540.64;714273;1178;115781;-83
2022/06/12 20:28:00;;;;;;;14.35;6.30;;;;;;;20.89;92.96;100537.20;713545;1180;115924;-85
2022/06/12 20:43:02;;;;;;;11.45;5.93;;;;;;;20.74;94.91;100514.15;713345;1177;115702;-85
2022/06/12 20:58:05;;;;;;;8.13;4.57;;;;;;;20.39;96.49;100499.97;712766;1178;116027;-85
2022/06/12 21:13:08;;;;;;;9.45;4.65;;;;;;;20.08;96.90;100522.48;712802;1180;114421;-86
2022/06/12 21:28:13;;;;;;;38.40;14.20;;;;;;;19.93;98.96;100519.91;712719;1180;114392;-84
2022/06/12 21:43:15;;;;;;;9.15;5.10;;;;;;;19.44;99.65;100511.62;712534;1177;115677;-85
2022/06/12 21:58:19;;;;;;;14.08;5.58;;;;;;;19.44;100.00;100506.30;713075;1177;115272;-85
2022/06/12 22:13:21;;;;;;;8.50;4.97;;;;;;;19.47;100.00;100489.14;714050;1178;116204;-85
2022/06/12 22:28:23;;;;;;;10.38;5.20;;;;;;;18.93;100.00;100482.39;712941;1180;116004;-84
2022/06/12 22:43:26;;;;;;;12.08;4.50;;;;;;;18.89;100.00;100479.27;713276;1177;115977;-85
2022/06/12 22:58:28;;;;;;;10.20;5.95;;;;;;;18.63;100.00;100464.61;712717;1180;115336;-84
2022/06/12 23:13:31;;;;;;;10.83;5.37;;;;;;;18.40;100.00;100458.56;713030;1180;115527;-85
2022/06/12 23:28:36;;;;;;;6.90;5.40;;;;;;;18.19;100.00;100443.34;713281;1178;116298;-86
2022/06/12 23:43:41;;;;;;;11.10;5.70;;;;;;;18.02;100.00;100447.98;712959;1177;115351;-86
2022/06/12 23:58:44;;;;;;;13.43;6.10;;;;;;;17.86;100.00;100433.01;712814;1178;114740;-86
